Accueil
METAR-TAF:

METAR-TAF

Aéroports :

Aéroport international de Yaoundé-Nsimalen

Yaoundé, Cameroun

latitude: 03-50N, longitude: 011-31E, altitude: 751 m

Observation

Le bulletin a été fait il y a 43 minutes, à 02:00 UTC
Vent 4 kt de sud-ouest
Température 23°C
Humidité 100%
Pression 1013 hPa
Visibilité: 7000 m
Nuages fragmentés à une hauteur de 600 ft

METAR: FKYS 040200Z 23004KT 7000 BKN006 23/23 Q1013 NOSIG

Heure: 03:43 (02:43 UTC)

Prévision

Le bulletin a été fait il y a 3 heures et 43 minutes, à 23:00 UTC
Prévision valable du 04 à 00 UTC au 04 à 24 UTC
Vent 3 kt de ouest/sud-ouest
Visibilité: 6000 m
Nuages fragmentés à une hauteur de 600 ft
Temporairement
du 04 à 05 UTC au 04 à 08 UTC
Visibilité: 4000 m
brume
Evoluant progressivement
du 04 à 06 UTC au 04 à 10 UTC
Nuages fragmentés à une hauteur de 1600 ft

TAF: FKYS 032300Z 0400/0424 24003KT 6000 BKN006 TEMPO 0405/0408 4000 BR BECMG 0406/0410 BKN016

Observations et prévisions météorologiques de plus de 4000 aéroports (messages METAR et TAF).

Les stations disponibles sont représentées par des disques jaunes et rouges sur la carte.

Passer la souris dessus pour voir le nom de la station.

Cliquer dessus pour voir les observations et prévisions météorologiques.

Pour changer de carte: cliquez sur les boutons verts avec une croix noire pour zoomer, sur le bouton vert avec un tiret pour effectuer un zoom arrière, ou sur les flèches vertes pour les cartes adjacentes.


METAR-TAF: